createdAt,value
2024-04-15T00:08:37.739Z,71
2024-04-15T00:18:38.027Z,71
2024-04-15T00:28:38.170Z,72
2024-04-15T00:38:38.346Z,72
2024-04-15T00:48:38.551Z,72
2024-04-15T01:08:38.957Z,74
2024-04-15T01:18:39.300Z,73
2024-04-15T01:28:39.387Z,74
2024-04-15T01:48:39.760Z,74
2024-04-15T01:58:39.961Z,75
2024-04-15T02:08:40.161Z,76
2024-04-15T02:18:40.494Z,76
2024-04-15T02:28:40.582Z,76
2024-04-15T02:38:40.775Z,76
2024-04-15T02:48:41.152Z,76
2024-04-15T02:58:41.192Z,76
2024-04-15T03:08:41.411Z,76
2024-04-15T03:18:41.649Z,77
2024-04-15T03:28:41.807Z,77
2024-04-15T03:38:42.028Z,77
2024-04-15T03:48:42.215Z,77
2024-04-15T04:08:42.646Z,78
2024-04-15T04:28:43.039Z,78
2024-04-15T04:48:43.482Z,78
2024-04-15T05:08:43.856Z,78
2024-04-15T05:28:44.231Z,78
2024-04-15T05:48:44.702Z,77
2024-04-15T06:08:45.044Z,77
2024-04-15T06:48:45.877Z,76
2024-04-15T07:08:46.263Z,75
2024-04-15T07:28:46.687Z,75
2024-04-15T08:08:47.475Z,72
2024-04-15T08:48:48.349Z,67
2024-04-15T09:08:48.686Z,67
2024-04-15T09:28:49.140Z,66
2024-04-15T09:48:49.528Z,65
2024-04-15T10:08:49.901Z,63
2024-04-15T10:28:50.288Z,63
2024-04-15T10:48:50.710Z,62
2024-04-15T11:08:51.123Z,60
2024-04-15T11:28:51.535Z,59
2024-04-15T11:48:51.981Z,58
2024-04-15T12:08:52.303Z,58
2024-04-15T12:18:52.588Z,58
2024-04-15T12:28:52.706Z,57
2024-04-15T12:38:53.288Z,57
2024-04-15T12:48:53.107Z,57
2024-04-15T12:58:53.379Z,58
2024-04-15T13:08:53.533Z,60
2024-04-15T13:18:53.713Z,61
2024-04-15T13:28:53.910Z,62
2024-04-15T13:48:54.336Z,65
2024-04-15T14:08:54.722Z,65
2024-04-15T14:28:55.126Z,66
2024-04-15T14:48:55.587Z,66
2024-04-15T14:58:55.723Z,67
2024-04-15T15:08:55.927Z,68
2024-04-15T15:28:56.378Z,70
2024-04-15T15:48:56.793Z,73
2024-04-15T16:28:57.569Z,75
2024-04-15T16:48:58.075Z,75
2024-04-15T17:08:58.402Z,76
2024-04-15T17:48:59.303Z,77
2024-04-15T17:58:59.416Z,77
2024-04-15T18:08:59.622Z,77
2024-04-15T18:18:59.846Z,78
2024-04-15T18:29:00.035Z,78
2024-04-15T18:39:00.268Z,77
2024-04-15T18:49:00.455Z,77
2024-04-15T19:09:00.845Z,76
2024-04-15T19:29:01.261Z,76
2024-04-15T19:39:01.538Z,76
2024-04-15T19:49:01.690Z,76
2024-04-15T20:09:02.079Z,76
2024-04-15T20:29:02.488Z,75
2024-04-15T20:49:02.950Z,75
2024-04-15T21:09:03.321Z,75
2024-04-15T21:29:03.719Z,77
2024-04-15T21:39:03.933Z,78
2024-04-15T21:49:04.177Z,78
2024-04-15T21:59:04.408Z,79
2024-04-15T23:09:05.808Z,80
2024-04-15T23:29:06.186Z,80
2024-04-15T23:49:06.668Z,80
2024-04-15T23:59:06.817Z,80
